sensor_id;sensor_type;location;lat;lon;timestamp;temperature;humidity
19017;DHT22;9641;51.494;6.670;2023-03-08T00:01:58;1.00;99.90
19017;DHT22;9641;51.494;6.670;2023-03-08T00:04:24;1.10;99.90
19017;DHT22;9641;51.494;6.670;2023-03-08T00:06:51;1.10;99.90
19017;DHT22;9641;51.494;6.670;2023-03-08T00:09:18;1.00;99.90
19017;DHT22;9641;51.494;6.670;2023-03-08T00:11:45;1.00;99.90
19017;DHT22;9641;51.494;6.670;2023-03-08T00:14:12;1.10;99.90
19017;DHT22;9641;51.494;6.670;2023-03-08T00:16:40;1.10;99.90
19017;DHT22;9641;51.494;6.670;2023-03-08T00:19:07;1.00;99.90
19017;DHT22;9641;51.494;6.670;2023-03-08T00:21:34;1.00;99.90
19017;DHT22;9641;51.494;6.670;2023-03-08T00:24:01;1.00;99.90
19017;DHT22;9641;51.494;6.670;2023-03-08T00:26:28;1.10;99.90
19017;DHT22;9641;51.494;6.670;2023-03-08T00:28:55;1.10;99.90
19017;DHT22;9641;51.494;6.670;2023-03-08T00:31:21;1.10;99.90
19017;DHT22;9641;51.494;6.670;2023-03-08T00:33:53;1.10;99.90
19017;DHT22;9641;51.494;6.670;2023-03-08T00:36:20;1.10;99.90
19017;DHT22;9641;51.494;6.670;2023-03-08T00:38:47;1.10;99.90
19017;DHT22;9641;51.494;6.670;2023-03-08T00:41:16;1.10;99.90
19017;DHT22;9641;51.494;6.670;2023-03-08T00:43:43;1.10;99.90
19017;DHT22;9641;51.494;6.670;2023-03-08T00:46:10;1.10;99.90
19017;DHT22;9641;51.494;6.670;2023-03-08T00:48:37;1.00;99.90
19017;DHT22;9641;51.494;6.670;2023-03-08T00:51:06;1.00;99.90
19017;DHT22;9641;51.494;6.670;2023-03-08T00:53:33;1.00;99.90
19017;DHT22;9641;51.494;6.670;2023-03-08T00:56:00;1.10;99.90
19017;DHT22;9641;51.494;6.670;2023-03-08T00:58:29;1.10;99.90
19017;DHT22;9641;51.494;6.670;2023-03-08T01:00:56;1.00;99.90
19017;DHT22;9641;51.494;6.670;2023-03-08T01:03:24;1.00;99.90
19017;DHT22;9641;51.494;6.670;2023-03-08T01:05:52;1.10;99.90
19017;DHT22;9641;51.494;6.670;2023-03-08T01:08:22;1.10;99.90
19017;DHT22;9641;51.494;6.670;2023-03-08T01:10:50;1.10;99.90
19017;DHT22;9641;51.494;6.670;2023-03-08T01:13:17;1.10;99.90
19017;DHT22;9641;51.494;6.670;2023-03-08T01:15:45;1.20;99.90
19017;DHT22;9641;51.494;6.670;2023-03-08T01:18:12;1.20;99.90
19017;DHT22;9641;51.494;6.670;2023-03-08T01:20:39;1.20;99.90
19017;DHT22;9641;51.494;6.670;2023-03-08T01:23:06;1.20;99.90
19017;DHT22;9641;51.494;6.670;2023-03-08T01:25:35;1.30;99.90
19017;DHT22;9641;51.494;6.670;2023-03-08T01:28:02;1.30;99.90
19017;DHT22;9641;51.494;6.670;2023-03-08T01:30:29;1.20;99.90
19017;DHT22;9641;51.494;6.670;2023-03-08T01:32:56;1.30;99.90
19017;DHT22;9641;51.494;6.670;2023-03-08T01:35:25;1.30;99.90
19017;DHT22;9641;51.494;6.670;2023-03-08T01:37:51;1.30;99.90
19017;DHT22;9641;51.494;6.670;2023-03-08T01:40:19;1.30;99.90
19017;DHT22;9641;51.494;6.670;2023-03-08T01:42:47;1.30;99.90
19017;DHT22;9641;51.494;6.670;2023-03-08T01:48:22;1.40;99.90
19017;DHT22;9641;51.494;6.670;2023-03-08T01:51:04;1.40;99.90
19017;DHT22;9641;51.494;6.670;2023-03-08T01:53:32;1.40;99.90
19017;DHT22;9641;51.494;6.670;2023-03-08T01:56:00;1.40;99.90
19017;DHT22;9641;51.494;6.670;2023-03-08T01:58:29;1.40;99.90
19017;DHT22;9641;51.494;6.670;2023-03-08T02:00:56;1.40;99.90
19017;DHT22;9641;51.494;6.670;2023-03-08T02:03:26;1.40;99.90
19017;DHT22;9641;51.494;6.670;2023-03-08T02:05:53;1.40;99.90
19017;DHT22;9641;51.494;6.670;2023-03-08T02:08:26;1.50;99.90
19017;DHT22;9641;51.494;6.670;2023-03-08T02:10:53;1.50;99.90
19017;DHT22;9641;51.494;6.670;2023-03-08T02:13:21;1.50;99.90
19017;DHT22;9641;51.494;6.670;2023-03-08T02:15:50;1.50;99.90
19017;DHT22;9641;51.494;6.670;2023-03-08T02:18:21;1.50;99.90
19017;DHT22;9641;51.494;6.670;2023-03-08T02:20:48;1.50;99.90
19017;DHT22;9641;51.494;6.670;2023-03-08T02:23:18;1.50;99.90
19017;DHT22;9641;51.494;6.670;2023-03-08T02:25:50;1.50;99.90
19017;DHT22;9641;51.494;6.670;2023-03-08T02:28:18;1.50;99.90
19017;DHT22;9641;51.494;6.670;2023-03-08T02:30:45;1.50;99.90
19017;DHT22;9641;51.494;6.670;2023-03-08T02:33:14;1.50;99.90
19017;DHT22;9641;51.494;6.670;2023-03-08T02:35:41;1.50;99.90
19017;DHT22;9641;51.494;6.670;2023-03-08T02:38:12;1.60;99.90
19017;DHT22;9641;51.494;6.670;2023-03-08T02:40:41;1.60;99.90
19017;DHT22;9641;51.494;6.670;2023-03-08T02:43:08;1.60;99.90
19017;DHT22;9641;51.494;6.670;2023-03-08T02:45:38;1.50;99.90
19017;DHT22;9641;51.494;6.670;2023-03-08T02:48:08;1.50;99.90
19017;DHT22;9641;51.494;6.670;2023-03-08T02:50:35;1.60;99.90
19017;DHT22;9641;51.494;6.670;2023-03-08T02:53:02;1.60;99.90
19017;DHT22;9641;51.494;6.670;2023-03-08T02:55:31;1.60;99.90
19017;DHT22;9641;51.494;6.670;2023-03-08T02:58:02;1.60;99.90
19017;DHT22;9641;51.494;6.670;2023-03-08T03:00:29;1.60;99.90
19017;DHT22;9641;51.494;6.670;2023-03-08T03:02:56;1.60;99.90
19017;DHT22;9641;51.494;6.670;2023-03-08T03:05:25;1.60;99.90
19017;DHT22;9641;51.494;6.670;2023-03-08T03:07:53;1.60;99.90
19017;DHT22;9641;51.494;6.670;2023-03-08T03:10:23;1.50;99.90
19017;DHT22;9641;51.494;6.670;2023-03-08T03:12:51;1.60;99.90
19017;DHT22;9641;51.494;6.670;2023-03-08T03:15:22;1.60;99.90
19017;DHT22;9641;51.494;6.670;2023-03-08T03:17:53;1.60;99.90
19017;DHT22;9641;51.494;6.670;2023-03-08T03:20:20;1.60;99.90
19017;DHT22;9641;51.494;6.670;2023-03-08T03:22:46;1.60;99.90
19017;DHT22;9641;51.494;6.670;2023-03-08T03:25:14;1.60;99.90
19017;DHT22;9641;51.494;6.670;2023-03-08T03:27:43;1.60;99.90
19017;DHT22;9641;51.494;6.670;2023-03-08T03:30:11;1.60;99.90
19017;DHT22;9641;51.494;6.670;2023-03-08T03:32:40;1.50;99.90
19017;DHT22;9641;51.494;6.670;2023-03-08T03:35:09;1.50;99.90
19017;DHT22;9641;51.494;6.670;2023-03-08T03:37:36;1.60;99.90
19017;DHT22;9641;51.494;6.670;2023-03-08T03:40:06;1.60;99.90
19017;DHT22;9641;51.494;6.670;2023-03-08T03:42:33;1.60;99.90
19017;DHT22;9641;51.494;6.670;2023-03-08T03:45:11;1.60;99.90
19017;DHT22;9641;51.494;6.670;2023-03-08T03:47:40;1.50;99.90
19017;DHT22;9641;51.494;6.670;2023-03-08T03:50:09;1.50;99.90
19017;DHT22;9641;51.494;6.670;2023-03-08T03:52:45;1.50;99.90
19017;DHT22;9641;51.494;6.670;2023-03-08T03:55:12;1.60;99.90
19017;DHT22;9641;51.494;6.670;2023-03-08T03:57:39;1.60;99.90
19017;DHT22;9641;51.494;6.670;2023-03-08T04:00:12;1.60;99.90
19017;DHT22;9641;51.494;6.670;2023-03-08T04:02:49;1.60;99.90
19017;DHT22;9641;51.494;6.670;2023-03-08T04:05:18;1.50;99.90
19017;DHT22;9641;51.494;6.670;2023-03-08T04:07:49;1.50;99.90
19017;DHT22;9641;51.494;6.670;2023-03-08T04:10:17;1.50;99.90
19017;DHT22;9641;51.494;6.670;2023-03-08T04:12:47;1.50;99.90
19017;DHT22;9641;51.494;6.670;2023-03-08T04:15:16;1.50;99.90
19017;DHT22;9641;51.494;6.670;2023-03-08T04:17:44;1.60;99.90
19017;DHT22;9641;51.494;6.670;2023-03-08T04:20:12;1.60;99.90
19017;DHT22;9641;51.494;6.670;2023-03-08T04:22:43;1.70;99.90
19017;DHT22;9641;51.494;6.670;2023-03-08T04:25:17;1.70;99.90
19017;DHT22;9641;51.494;6.670;2023-03-08T04:27:51;1.60;99.90
19017;DHT22;9641;51.494;6.670;2023-03-08T04:30:19;1.70;99.90
19017;DHT22;9641;51.494;6.670;2023-03-08T04:32:46;1.70;99.90
19017;DHT22;9641;51.494;6.670;2023-03-08T04:35:15;1.70;99.90
19017;DHT22;9641;51.494;6.670;2023-03-08T04:37:44;1.60;99.90
19017;DHT22;9641;51.494;6.670;2023-03-08T04:40:12;1.60;99.90
19017;DHT22;9641;51.494;6.670;2023-03-08T04:42:46;1.60;99.90
19017;DHT22;9641;51.494;6.670;2023-03-08T04:45:16;1.50;99.90
19017;DHT22;9641;51.494;6.670;2023-03-08T04:47:44;1.40;99.90
19017;DHT22;9641;51.494;6.670;2023-03-08T04:50:11;1.40;99.90
19017;DHT22;9641;51.494;6.670;2023-03-08T04:52:41;1.40;99.90
19017;DHT22;9641;51.494;6.670;2023-03-08T04:55:08;1.50;99.90
19017;DHT22;9641;51.494;6.670;2023-03-08T04:57:36;1.50;99.90
19017;DHT22;9641;51.494;6.670;2023-03-08T05:00:04;1.50;99.90
19017;DHT22;9641;51.494;6.670;2023-03-08T05:02:35;1.60;99.90
19017;DHT22;9641;51.494;6.670;2023-03-08T05:05:02;1.70;99.90
19017;DHT22;9641;51.494;6.670;2023-03-08T05:07:30;1.70;99.90
19017;DHT22;9641;51.494;6.670;2023-03-08T05:10:00;1.70;99.90
19017;DHT22;9641;51.494;6.670;2023-03-08T05:12:28;1.70;99.90
19017;DHT22;9641;51.494;6.670;2023-03-08T05:14:58;1.70;99.90
19017;DHT22;9641;51.494;6.670;2023-03-08T05:17:26;1.70;99.90
19017;DHT22;9641;51.494;6.670;2023-03-08T05:19:53;1.70;99.90
19017;DHT22;9641;51.494;6.670;2023-03-08T05:22:25;1.70;99.90
19017;DHT22;9641;51.494;6.670;2023-03-08T05:24:55;1.70;99.90
19017;DHT22;9641;51.494;6.670;2023-03-08T05:27:24;1.70;99.90
19017;DHT22;9641;51.494;6.670;2023-03-08T05:29:52;1.70;99.90
19017;DHT22;9641;51.494;6.670;2023-03-08T05:32:19;1.60;99.90
19017;DHT22;9641;51.494;6.670;2023-03-08T05:34:45;1.60;99.90
19017;DHT22;9641;51.494;6.670;2023-03-08T05:37:20;1.60;99.90
19017;DHT22;9641;51.494;6.670;2023-03-08T05:39:51;1.60;99.90
19017;DHT22;9641;51.494;6.670;2023-03-08T05:42:20;1.70;99.90
19017;DHT22;9641;51.494;6.670;2023-03-08T05:44:49;1.60;99.90
19017;DHT22;9641;51.494;6.670;2023-03-08T05:47:21;1.60;99.90
19017;DHT22;9641;51.494;6.670;2023-03-08T05:49:49;1.60;99.90
19017;DHT22;9641;51.494;6.670;2023-03-08T05:52:17;1.60;99.90
19017;DHT22;9641;51.494;6.670;2023-03-08T05:54:44;1.60;99.90
19017;DHT22;9641;51.494;6.670;2023-03-08T05:57:15;1.60;99.90
19017;DHT22;9641;51.494;6.670;2023-03-08T05:59:42;1.60;99.90
19017;DHT22;9641;51.494;6.670;2023-03-08T06:02:14;1.60;99.90
19017;DHT22;9641;51.494;6.670;2023-03-08T06:04:45;1.60;99.90
19017;DHT22;9641;51.494;6.670;2023-03-08T06:07:14;1.60;99.90
19017;DHT22;9641;51.494;6.670;2023-03-08T06:09:46;1.60;99.90
19017;DHT22;9641;51.494;6.670;2023-03-08T06:12:16;1.60;99.90
19017;DHT22;9641;51.494;6.670;2023-03-08T06:14:46;1.60;99.90
19017;DHT22;9641;51.494;6.670;2023-03-08T06:17:17;1.60;99.90
19017;DHT22;9641;51.494;6.670;2023-03-08T06:19:47;1.50;99.90
19017;DHT22;9641;51.494;6.670;2023-03-08T06:22:16;1.50;99.90
19017;DHT22;9641;51.494;6.670;2023-03-08T06:24:44;1.50;99.90
19017;DHT22;9641;51.494;6.670;2023-03-08T06:27:15;1.50;99.90
19017;DHT22;9641;51.494;6.670;2023-03-08T06:29:44;1.50;99.90
19017;DHT22;9641;51.494;6.670;2023-03-08T06:32:13;1.40;99.90
19017;DHT22;9641;51.494;6.670;2023-03-08T06:34:42;1.40;99.90
19017;DHT22;9641;51.494;6.670;2023-03-08T06:37:10;1.40;99.90
19017;DHT22;9641;51.494;6.670;2023-03-08T06:39:37;1.30;99.90
19017;DHT22;9641;51.494;6.670;2023-03-08T06:42:05;1.30;99.90
19017;DHT22;9641;51.494;6.670;2023-03-08T06:44:34;1.30;99.90
19017;DHT22;9641;51.494;6.670;2023-03-08T06:47:01;1.30;99.90
19017;DHT22;9641;51.494;6.670;2023-03-08T06:49:27;1.40;99.90
19017;DHT22;9641;51.494;6.670;2023-03-08T06:51:56;1.40;99.90
19017;DHT22;9641;51.494;6.670;2023-03-08T06:54:23;1.40;99.90
19017;DHT22;9641;51.494;6.670;2023-03-08T06:56:50;1.40;99.90
19017;DHT22;9641;51.494;6.670;2023-03-08T06:59:16;1.40;99.90
19017;DHT22;9641;51.494;6.670;2023-03-08T07:01:43;1.30;99.90
19017;DHT22;9641;51.494;6.670;2023-03-08T07:04:10;1.30;99.90
19017;DHT22;9641;51.494;6.670;2023-03-08T07:06:37;1.30;99.90
19017;DHT22;9641;51.494;6.670;2023-03-08T07:09:05;1.30;99.90
19017;DHT22;9641;51.494;6.670;2023-03-08T07:11:32;1.20;99.90
19017;DHT22;9641;51.494;6.670;2023-03-08T07:13:59;1.20;99.90
19017;DHT22;9641;51.494;6.670;2023-03-08T07:16:26;1.30;99.90
19017;DHT22;9641;51.494;6.670;2023-03-08T07:18:57;1.20;99.90
19017;DHT22;9641;51.494;6.670;2023-03-08T07:21:25;1.20;99.90
19017;DHT22;9641;51.494;6.670;2023-03-08T07:23:52;1.30;99.90
19017;DHT22;9641;51.494;6.670;2023-03-08T07:26:20;1.20;99.90
19017;DHT22;9641;51.494;6.670;2023-03-08T07:28:48;1.20;99.90
19017;DHT22;9641;51.494;6.670;2023-03-08T07:31:16;1.20;99.90
19017;DHT22;9641;51.494;6.670;2023-03-08T07:33:43;1.20;99.90
19017;DHT22;9641;51.494;6.670;2023-03-08T07:36:10;1.10;99.90
19017;DHT22;9641;51.494;6.670;2023-03-08T07:38:37;1.10;99.90
19017;DHT22;9641;51.494;6.670;2023-03-08T07:41:04;1.10;99.90
19017;DHT22;9641;51.494;6.670;2023-03-08T07:43:32;1.10;99.90
19017;DHT22;9641;51.494;6.670;2023-03-08T07:46:07;1.10;99.90
19017;DHT22;9641;51.494;6.670;2023-03-08T07:48:34;1.10;99.90
19017;DHT22;9641;51.494;6.670;2023-03-08T07:51:02;1.00;99.90
19017;DHT22;9641;51.494;6.670;2023-03-08T07:53:31;1.00;99.90
19017;DHT22;9641;51.494;6.670;2023-03-08T07:55:59;0.90;99.90
19017;DHT22;9641;51.494;6.670;2023-03-08T07:58:27;1.00;99.90
19017;DHT22;9641;51.494;6.670;2023-03-08T08:00:55;0.90;99.90
19017;DHT22;9641;51.494;6.670;2023-03-08T08:03:22;1.00;99.90
19017;DHT22;9641;51.494;6.670;2023-03-08T08:05:49;1.00;99.90
19017;DHT22;9641;51.494;6.670;2023-03-08T08:08:16;1.00;99.90
19017;DHT22;9641;51.494;6.670;2023-03-08T08:10:43;0.90;99.90
19017;DHT22;9641;51.494;6.670;2023-03-08T08:13:10;0.90;99.90
19017;DHT22;9641;51.494;6.670;2023-03-08T08:15:37;0.90;99.90
19017;DHT22;9641;51.494;6.670;2023-03-08T08:18:05;0.90;99.90
19017;DHT22;9641;51.494;6.670;2023-03-08T08:20:32;1.00;99.90
19017;DHT22;9641;51.494;6.670;2023-03-08T08:22:59;0.90;99.90
19017;DHT22;9641;51.494;6.670;2023-03-08T08:25:26;0.90;99.90
19017;DHT22;9641;51.494;6.670;2023-03-08T08:27:53;1.00;99.90
19017;DHT22;9641;51.494;6.670;2023-03-08T08:30:20;1.00;99.90
19017;DHT22;9641;51.494;6.670;2023-03-08T08:32:46;1.00;99.90
19017;DHT22;9641;51.494;6.670;2023-03-08T08:35:15;1.10;99.90
19017;DHT22;9641;51.494;6.670;2023-03-08T08:37:42;1.10;99.90
19017;DHT22;9641;51.494;6.670;2023-03-08T08:40:09;1.20;99.90
19017;DHT22;9641;51.494;6.670;2023-03-08T08:42:37;1.20;99.90
19017;DHT22;9641;51.494;6.670;2023-03-08T08:45:05;1.10;99.90
19017;DHT22;9641;51.494;6.670;2023-03-08T08:47:32;1.10;99.90
19017;DHT22;9641;51.494;6.670;2023-03-08T08:49:59;1.10;99.90
19017;DHT22;9641;51.494;6.670;2023-03-08T08:52:27;1.00;99.90
19017;DHT22;9641;51.494;6.670;2023-03-08T08:54:54;1.00;99.90
19017;DHT22;9641;51.494;6.670;2023-03-08T08:57:22;0.90;99.90
19017;DHT22;9641;51.494;6.670;2023-03-08T08:59:49;0.90;99.90
19017;DHT22;9641;51.494;6.670;2023-03-08T09:02:16;0.80;99.90
19017;DHT22;9641;51.494;6.670;2023-03-08T09:04:43;0.70;99.90
19017;DHT22;9641;51.494;6.670;2023-03-08T09:07:10;0.70;99.90
19017;DHT22;9641;51.494;6.670;2023-03-08T09:09:38;0.70;99.90
19017;DHT22;9641;51.494;6.670;2023-03-08T09:12:06;0.70;99.90
19017;DHT22;9641;51.494;6.670;2023-03-08T09:14:33;0.70;99.90
19017;DHT22;9641;51.494;6.670;2023-03-08T09:17:00;0.70;99.90
19017;DHT22;9641;51.494;6.670;2023-03-08T09:19:27;0.70;99.90
19017;DHT22;9641;51.494;6.670;2023-03-08T09:21:54;0.80;99.90
19017;DHT22;9641;51.494;6.670;2023-03-08T09:24:20;0.80;99.90
19017;DHT22;9641;51.494;6.670;2023-03-08T09:26:49;0.90;99.90
19017;DHT22;9641;51.494;6.670;2023-03-08T09:29:16;1.00;99.90
19017;DHT22;9641;51.494;6.670;2023-03-08T09:31:42;1.00;99.90
19017;DHT22;9641;51.494;6.670;2023-03-08T09:34:10;1.00;99.90
19017;DHT22;9641;51.494;6.670;2023-03-08T09:36:39;1.00;99.90
19017;DHT22;9641;51.494;6.670;2023-03-08T09:39:07;1.00;99.90
19017;DHT22;9641;51.494;6.670;2023-03-08T09:41:51;1.10;99.90
19017;DHT22;9641;51.494;6.670;2023-03-08T09:47:25;1.00;99.90
19017;DHT22;9641;51.494;6.670;2023-03-08T09:49:58;1.00;99.90
19017;DHT22;9641;51.494;6.670;2023-03-08T09:52:36;1.10;99.90
19017;DHT22;9641;51.494;6.670;2023-03-08T09:55:08;1.20;99.90
19017;DHT22;9641;51.494;6.670;2023-03-08T09:57:43;1.30;99.90
19017;DHT22;9641;51.494;6.670;2023-03-08T10:00:18;1.20;99.90
19017;DHT22;9641;51.494;6.670;2023-03-08T10:02:54;1.30;99.90
19017;DHT22;9641;51.494;6.670;2023-03-08T10:05:29;1.30;99.90
19017;DHT22;9641;51.494;6.670;2023-03-08T10:08:05;1.20;99.90
19017;DHT22;9641;51.494;6.670;2023-03-08T10:10:40;1.20;99.90
19017;DHT22;9641;51.494;6.670;2023-03-08T10:13:30;1.10;99.90
19017;DHT22;9641;51.494;6.670;2023-03-08T10:16:04;1.10;99.90
19017;DHT22;9641;51.494;6.670;2023-03-08T10:18:36;1.10;99.90
19017;DHT22;9641;51.494;6.670;2023-03-08T10:21:07;1.10;99.90
19017;DHT22;9641;51.494;6.670;2023-03-08T10:23:37;1.10;99.90
19017;DHT22;9641;51.494;6.670;2023-03-08T10:26:09;1.10;99.90
19017;DHT22;9641;51.494;6.670;2023-03-08T10:28:38;1.10;99.90
19017;DHT22;9641;51.494;6.670;2023-03-08T10:31:19;1.20;99.90
19017;DHT22;9641;51.494;6.670;2023-03-08T10:33:49;1.20;99.90
19017;DHT22;9641;51.494;6.670;2023-03-08T10:36:19;1.40;99.90
19017;DHT22;9641;51.494;6.670;2023-03-08T10:39:00;1.40;99.90
19017;DHT22;9641;51.494;6.670;2023-03-08T10:41:28;1.50;99.90
19017;DHT22;9641;51.494;6.670;2023-03-08T10:43:59;1.50;99.90
19017;DHT22;9641;51.494;6.670;2023-03-08T10:46:27;1.40;99.90
19017;DHT22;9641;51.494;6.670;2023-03-08T10:49:06;1.30;99.90
19017;DHT22;9641;51.494;6.670;2023-03-08T10:51:34;1.40;99.90
19017;DHT22;9641;51.494;6.670;2023-03-08T10:54:03;1.30;99.90
19017;DHT22;9641;51.494;6.670;2023-03-08T10:56:34;1.40;99.90
19017;DHT22;9641;51.494;6.670;2023-03-08T10:59:04;1.40;99.90
19017;DHT22;9641;51.494;6.670;2023-03-08T11:01:33;1.40;99.90
19017;DHT22;9641;51.494;6.670;2023-03-08T11:04:01;1.40;99.90
19017;DHT22;9641;51.494;6.670;2023-03-08T11:06:29;1.50;99.90
19017;DHT22;9641;51.494;6.670;2023-03-08T11:08:58;1.40;99.90
19017;DHT22;9641;51.494;6.670;2023-03-08T11:11:26;1.30;99.90
19017;DHT22;9641;51.494;6.670;2023-03-08T11:13:53;1.20;99.90
19017;DHT22;9641;51.494;6.670;2023-03-08T11:19:20;1.20;99.90
19017;DHT22;9641;51.494;6.670;2023-03-08T11:21:58;1.20;99.90
19017;DHT22;9641;51.494;6.670;2023-03-08T11:24:38;1.30;99.90
19017;DHT22;9641;51.494;6.670;2023-03-08T11:27:20;1.40;99.90
19017;DHT22;9641;51.494;6.670;2023-03-08T11:30:02;1.40;99.90
19017;DHT22;9641;51.494;6.670;2023-03-08T11:32:43;1.40;99.90
19017;DHT22;9641;51.494;6.670;2023-03-08T11:35:22;1.60;99.90
19017;DHT22;9641;51.494;6.670;2023-03-08T11:37:54;1.60;99.90
19017;DHT22;9641;51.494;6.670;2023-03-08T11:40:24;1.50;99.90
19017;DHT22;9641;51.494;6.670;2023-03-08T11:43:15;1.50;99.90
19017;DHT22;9641;51.494;6.670;2023-03-08T11:45:49;1.70;99.90
19017;DHT22;9641;51.494;6.670;2023-03-08T11:48:38;1.80;99.90
19017;DHT22;9641;51.494;6.670;2023-03-08T11:51:12;1.80;99.90
19017;DHT22;9641;51.494;6.670;2023-03-08T11:53:50;1.80;99.90
19017;DHT22;9641;51.494;6.670;2023-03-08T11:56:36;1.70;99.90
19017;DHT22;9641;51.494;6.670;2023-03-08T11:59:08;1.70;99.90
19017;DHT22;9641;51.494;6.670;2023-03-08T12:01:38;1.60;99.90
19017;DHT22;9641;51.494;6.670;2023-03-08T12:04:11;1.70;99.90
19017;DHT22;9641;51.494;6.670;2023-03-08T12:06:40;1.60;99.90
19017;DHT22;9641;51.494;6.670;2023-03-08T12:09:15;1.60;99.90
19017;DHT22;9641;51.494;6.670;2023-03-08T12:11:46;1.70;99.90
19017;DHT22;9641;51.494;6.670;2023-03-08T12:14:17;1.70;99.90
19017;DHT22;9641;51.494;6.670;2023-03-08T12:16:48;1.70;99.90
19017;DHT22;9641;51.494;6.670;2023-03-08T12:19:24;1.80;99.90
19017;DHT22;9641;51.494;6.670;2023-03-08T12:21:58;1.80;99.90
19017;DHT22;9641;51.494;6.670;2023-03-08T12:24:39;1.70;99.90
19017;DHT22;9641;51.494;6.670;2023-03-08T12:27:10;1.80;99.90
19017;DHT22;9641;51.494;6.670;2023-03-08T12:29:41;1.80;99.90
19017;DHT22;9641;51.494;6.670;2023-03-08T12:32:10;1.80;99.90
19017;DHT22;9641;51.494;6.670;2023-03-08T12:34:42;1.90;99.90
19017;DHT22;9641;51.494;6.670;2023-03-08T12:37:21;1.90;99.90
19017;DHT22;9641;51.494;6.670;2023-03-08T12:39:57;1.90;99.90
19017;DHT22;9641;51.494;6.670;2023-03-08T12:42:29;2.00;99.90
19017;DHT22;9641;51.494;6.670;2023-03-08T12:45:12;2.10;99.90
19017;DHT22;9641;51.494;6.670;2023-03-08T12:47:56;2.40;99.90
19017;DHT22;9641;51.494;6.670;2023-03-08T12:50:24;2.40;99.90
19017;DHT22;9641;51.494;6.670;2023-03-08T12:52:51;2.40;99.90
19017;DHT22;9641;51.494;6.670;2023-03-08T12:55:24;2.20;99.90
19017;DHT22;9641;51.494;6.670;2023-03-08T12:57:57;2.20;99.90
19017;DHT22;9641;51.494;6.670;2023-03-08T13:00:27;2.30;99.90
19017;DHT22;9641;51.494;6.670;2023-03-08T13:03:00;2.30;99.90
19017;DHT22;9641;51.494;6.670;2023-03-08T13:05:33;2.50;99.90
19017;DHT22;9641;51.494;6.670;2023-03-08T13:08:19;2.60;99.90
19017;DHT22;9641;51.494;6.670;2023-03-08T13:10:57;2.70;99.90
19017;DHT22;9641;51.494;6.670;2023-03-08T13:13:30;2.70;99.90
19017;DHT22;9641;51.494;6.670;2023-03-08T13:16:16;2.70;99.90
19017;DHT22;9641;51.494;6.670;2023-03-08T13:18:45;2.60;99.90
19017;DHT22;9641;51.494;6.670;2023-03-08T13:21:26;2.70;99.90
19017;DHT22;9641;51.494;6.670;2023-03-08T13:23:56;2.60;99.90
19017;DHT22;9641;51.494;6.670;2023-03-08T13:26:40;2.60;99.90
19017;DHT22;9641;51.494;6.670;2023-03-08T13:29:12;2.70;99.90
19017;DHT22;9641;51.494;6.670;2023-03-08T13:31:40;2.60;99.90
19017;DHT22;9641;51.494;6.670;2023-03-08T13:34:23;2.50;99.90
19017;DHT22;9641;51.494;6.670;2023-03-08T13:36:52;2.50;99.90
19017;DHT22;9641;51.494;6.670;2023-03-08T13:39:21;2.50;99.90
19017;DHT22;9641;51.494;6.670;2023-03-08T13:41:49;2.50;99.90
19017;DHT22;9641;51.494;6.670;2023-03-08T13:44:17;2.60;99.90
19017;DHT22;9641;51.494;6.670;2023-03-08T13:46:45;2.50;99.90
19017;DHT22;9641;51.494;6.670;2023-03-08T13:49:16;2.50;99.90
19017;DHT22;9641;51.494;6.670;2023-03-08T13:51:47;2.60;99.90
19017;DHT22;9641;51.494;6.670;2023-03-08T13:54:20;2.70;99.90
19017;DHT22;9641;51.494;6.670;2023-03-08T13:56:54;2.70;99.90
19017;DHT22;9641;51.494;6.670;2023-03-08T13:59:21;2.70;99.90
19017;DHT22;9641;51.494;6.670;2023-03-08T14:01:49;2.70;99.90
19017;DHT22;9641;51.494;6.670;2023-03-08T14:04:19;2.80;99.90
19017;DHT22;9641;51.494;6.670;2023-03-08T14:06:49;2.80;99.90
19017;DHT22;9641;51.494;6.670;2023-03-08T14:09:17;2.80;99.90
19017;DHT22;9641;51.494;6.670;2023-03-08T14:11:51;2.80;99.90
19017;DHT22;9641;51.494;6.670;2023-03-08T14:14:23;2.80;99.90
19017;DHT22;9641;51.494;6.670;2023-03-08T14:16:54;2.80;99.90
19017;DHT22;9641;51.494;6.670;2023-03-08T14:19:24;2.80;99.90
19017;DHT22;9641;51.494;6.670;2023-03-08T14:21:53;2.80;99.90
19017;DHT22;9641;51.494;6.670;2023-03-08T14:24:24;2.70;99.90
19017;DHT22;9641;51.494;6.670;2023-03-08T14:26:57;2.70;99.90
19017;DHT22;9641;51.494;6.670;2023-03-08T14:29:26;2.70;99.90
19017;DHT22;9641;51.494;6.670;2023-03-08T14:31:57;2.80;99.90
19017;DHT22;9641;51.494;6.670;2023-03-08T14:34:26;2.70;99.90
19017;DHT22;9641;51.494;6.670;2023-03-08T14:36:56;2.70;99.90
19017;DHT22;9641;51.494;6.670;2023-03-08T14:39:27;2.70;99.90
19017;DHT22;9641;51.494;6.670;2023-03-08T14:41:55;2.80;99.90
19017;DHT22;9641;51.494;6.670;2023-03-08T14:44:27;2.70;99.90
19017;DHT22;9641;51.494;6.670;2023-03-08T14:46:55;2.70;99.90
19017;DHT22;9641;51.494;6.670;2023-03-08T14:49:26;2.70;99.90
19017;DHT22;9641;51.494;6.670;2023-03-08T14:51:54;2.70;99.90
19017;DHT22;9641;51.494;6.670;2023-03-08T14:54:31;2.70;99.90
19017;DHT22;9641;51.494;6.670;2023-03-08T14:57:07;2.70;99.90
19017;DHT22;9641;51.494;6.670;2023-03-08T14:59:39;2.70;99.90
19017;DHT22;9641;51.494;6.670;2023-03-08T15:02:10;2.70;99.90
19017;DHT22;9641;51.494;6.670;2023-03-08T15:04:37;2.70;99.90
19017;DHT22;9641;51.494;6.670;2023-03-08T15:07:05;2.60;99.90
19017;DHT22;9641;51.494;6.670;2023-03-08T15:09:34;2.70;99.90
19017;DHT22;9641;51.494;6.670;2023-03-08T15:12:01;2.70;99.90
19017;DHT22;9641;51.494;6.670;2023-03-08T15:14:28;2.70;99.90
19017;DHT22;9641;51.494;6.670;2023-03-08T15:16:55;2.70;99.90
19017;DHT22;9641;51.494;6.670;2023-03-08T15:19:23;2.60;99.90
19017;DHT22;9641;51.494;6.670;2023-03-08T15:21:50;2.70;99.90
19017;DHT22;9641;51.494;6.670;2023-03-08T15:24:17;2.70;99.90
19017;DHT22;9641;51.494;6.670;2023-03-08T15:26:46;2.70;99.90
19017;DHT22;9641;51.494;6.670;2023-03-08T15:29:23;2.50;99.90
19017;DHT22;9641;51.494;6.670;2023-03-08T15:31:51;2.50;99.90
19017;DHT22;9641;51.494;6.670;2023-03-08T15:34:19;2.50;99.90
19017;DHT22;9641;51.494;6.670;2023-03-08T15:36:47;2.60;99.90
19017;DHT22;9641;51.494;6.670;2023-03-08T15:39:15;2.70;99.90
19017;DHT22;9641;51.494;6.670;2023-03-08T15:41:42;2.60;99.90
19017;DHT22;9641;51.494;6.670;2023-03-08T15:44:11;2.70;99.90
19017;DHT22;9641;51.494;6.670;2023-03-08T15:46:38;2.60;99.90
19017;DHT22;9641;51.494;6.670;2023-03-08T15:49:08;2.70;99.90
19017;DHT22;9641;51.494;6.670;2023-03-08T15:51:37;2.60;99.90
19017;DHT22;9641;51.494;6.670;2023-03-08T15:54:10;2.60;99.90
19017;DHT22;9641;51.494;6.670;2023-03-08T15:56:38;2.60;99.90
19017;DHT22;9641;51.494;6.670;2023-03-08T15:59:05;2.60;99.90
19017;DHT22;9641;51.494;6.670;2023-03-08T16:01:33;2.60;99.90
19017;DHT22;9641;51.494;6.670;2023-03-08T16:04:01;2.60;99.90
19017;DHT22;9641;51.494;6.670;2023-03-08T16:06:28;2.60;99.90
19017;DHT22;9641;51.494;6.670;2023-03-08T16:08:55;2.50;99.90
19017;DHT22;9641;51.494;6.670;2023-03-08T16:11:22;2.50;99.90
19017;DHT22;9641;51.494;6.670;2023-03-08T16:13:51;2.40;99.90
19017;DHT22;9641;51.494;6.670;2023-03-08T16:16:18;2.40;99.90
19017;DHT22;9641;51.494;6.670;2023-03-08T16:18:47;2.50;99.90
19017;DHT22;9641;51.494;6.670;2023-03-08T16:21:14;2.50;99.90
19017;DHT22;9641;51.494;6.670;2023-03-08T16:23:41;2.50;99.90
19017;DHT22;9641;51.494;6.670;2023-03-08T16:26:11;2.50;99.90
19017;DHT22;9641;51.494;6.670;2023-03-08T16:28:38;2.40;99.90